• Join FlightAware (Why Join?)
  • Login
  • US Flag 
04:41AM EST


 

Airport Tracker/Info


-or-


 

Live Flight TrackerFlight Track Log ✈ ASQ5941 ✈ 11-Apr-2013 ✈ KAVP - KORD

Flight Track Log - Related Links

Times and Time Zones

All times are in EDT time to prevent confusion due to time zone crossing. See the ASQ5941 flight status page for this flight to view local times or setup timezone preferences in your user account.

Time Position Orientation Groundspeed Altitude Reporting Facility
EDT Latitude Longitude Course Direction KTS MPH feet Rate Location/Type
08:27PM 41.4444 -75.6917 324° Northwest 245 282 5,500  Level New York Center
08:28PM 41.5006 -75.7456 324° Northwest 255 293 7,500 2,186 Climbing New York Center
08:29PM 41.5592 -75.7889 331° Northwest 260 299 9,800 1,350 Climbing New York Center
08:30PM 41.6406 -75.7839 North 273 314 10,200 1,289 Climbing New York Center
08:31PM 41.7367 -75.7772 North 304 350 12,400 2,281 Climbing New York Center
08:32PM 41.8200 -75.7722 North 309 356 14,800 2,132 Climbing New York Center
08:33PM 41.8672 -75.8372 314° West 243 280 16,700 1,884 Climbing New York Center
08:34PM 41.8322 -75.9264 242° Southwest 231 266 18,600 2,034 Climbing New York Center
08:35PM 41.7944 -76.0264 243° Southwest 253 291 20,700 1,983 Climbing New York Center
08:36PM 41.7611 -76.1239 245° Southwest 276 318 22,500 1,623 Climbing New York Center
08:37PM 41.7317 -76.2186 247° West 281 323 24,000 1,250 Climbing New York Center
08:38PM 41.6936 -76.3211 244° Southwest 293 337 25,000 1,008 Climbing New York Center
08:39PM 41.6653 -76.4356 252° West 312 359 26,000 885 Climbing New York Center
08:40PM 41.7078 -76.5503 296° West 312 359 26,800 864 Climbing New York Center
08:41PM 41.7492 -76.6400 302° West 318 366 27,700 1,119 Climbing New York Center
08:42PM 41.8036 -76.7589 302° West 334 384 29,000 1,516 Climbing New York Center
08:44PM 41.9019 -77.0008 299° West 342 394 32,400 1,492 Climbing Cleveland Center
08:45PM 41.9325 -77.1136 290° West 336 387 33,600 800 Climbing Cleveland Center
08:46PM 41.9631 -77.2292 290° West 331 381 34,000 200 Climbing Cleveland Center
08:47PM 41.9981 -77.3558 290° West 339 390 34,000  Level Cleveland Center
08:48PM 42.0311 -77.4911 288° West 361 415 34,000  Level Cleveland Center
08:49PM 42.0681 -77.6294 290° West 382 440 34,000  Level Cleveland Center
08:50PM 42.1047 -77.7647 290° West 387 445 34,000  Level Cleveland Center
08:51PM 42.1414 -77.8975 290° West 382 440 34,000  Level Cleveland Center
08:52PM 42.1756 -78.0336 289° West 382 440 34,000  Level Cleveland Center
08:53PM 42.2119 -78.1667 290° West 382 440 34,000  Level Cleveland Center
08:54PM 42.2458 -78.3000 289° West 382 440 34,000  Level Cleveland Center
08:55PM 42.2817 -78.4333 290° West 382 440 34,000  Level Cleveland Center
08:56PM 42.3156 -78.5697 289° West 382 440 34,000  Level Cleveland Center
08:57PM 42.3511 -78.7064 289° West 382 440 34,000  Level Cleveland Center
08:58PM 42.3844 -78.8403 289° West 382 440 34,000  Level Cleveland Center
08:59PM 42.4114 -78.9606 287° West 377 434 34,000  Level Cleveland Center
09:00PM 42.4467 -79.1003 289° West 377 434 34,000  Level Cleveland Center
09:01PM 42.4794 -79.2347 288° West 377 434 34,000  Level Cleveland Center
09:02PM 42.4978 -79.3947 279° West 377 434 34,000  Level Cleveland Center
09:03PM 42.5053 -79.5131 275° West 377 434 34,000  Level Cleveland Center
09:04PM 42.5128 -79.6536 274° West 377 434 34,000  Level Cleveland Center
09:05PM 42.5181 -79.7917 273° West 377 434 34,000  Level Cleveland Center
09:06PM 42.5272 -79.9325 275° West 377 434 34,000  Level Cleveland Center
09:07PM 42.5281 -80.0872 270° West 372 428 34,000  Level Cleveland Center
09:08PM 42.5325 -80.2083 273° West 372 428 34,000  Level Cleveland Center
09:09PM 42.5392 -80.3522 274° West 372 428 34,000  Level Cleveland Center
09:10PM 42.5456 -80.4903 274° West 372 428 34,000  Level Cleveland Center
09:11PM 42.5497 -80.6256 272° West 372 428 34,000  Level Cleveland Center
09:12PM 42.5581 -80.7664 275° West 366 421 34,000  Level Cleveland Center
09:13PM 42.5597 -80.9044 271° West 368 423 34,000  Level Cleveland Center
09:14PM 42.5761 -81.0400 279° West 368 423 34,000  Level Cleveland Center
09:15PM 42.5983 -81.1811 282° West 374 430 34,000  Level Cleveland Center
09:16PM 42.6203 -81.3336 281° West 374 430 34,000  Level Cleveland Center
09:17PM 42.6422 -81.4781 282° West 380 437 34,000  Level Cleveland Center
09:18PM 42.6639 -81.6194 282° West 385 443 34,000  Level Cleveland Center
09:19PM 42.6856 -81.7611 282° West 392 451 34,000  Level Cleveland Center
09:20PM 42.7050 -81.8914 282° West 392 451 34,000  Level Cleveland Center
09:21PM 42.7261 -82.0331 282° West 392 451 34,000  Level Cleveland Center
09:22PM 42.7472 -82.1750 281° West 392 451 34,000  Level Cleveland Center
09:23PM 42.7661 -82.3139 281° West 392 451 34,000  Level Cleveland Center
09:24PM 42.7867 -82.4561 281° West 392 451 34,000  Level Cleveland Center
09:25PM 42.8072 -82.5953 281° West 392 451 34,000  Level Cleveland Center
09:26PM 42.8297 -82.7375 282° West 392 451 34,000  Level Cleveland Center
09:27PM 42.8458 -82.8797 279° West 387 445 34,000  Level Cleveland Center
09:28PM 42.8681 -83.0167 283° West 387 445 34,000  Level Cleveland Center
09:29PM 42.8858 -83.1561 280° West 382 440 34,000  Level Cleveland Center
09:30PM 42.9053 -83.3014 280° West 382 440 34,000  Level Cleveland Center
09:31PM 42.9250 -83.4414 281° West 382 440 34,000  Level Cleveland Center
09:32PM 42.9442 -83.5842 280° West 382 440 34,000  Level Cleveland Center
09:33PM 42.9611 -83.7294 279° West 387 445 34,000  Level Cleveland Center
09:34PM 42.9553 -83.8656 267° West 387 445 34,000  Level Cleveland Center
09:35PM 42.9408 -84.0064 262° West 377 434 34,000  Level Cleveland Center
09:36PM 42.9261 -84.1447 262° West 377 434 34,000  Level Cleveland Center
09:37PM 42.9136 -84.2800 263° West 377 434 34,000  Level Cleveland Center
09:38PM 42.8947 -84.4761 263° West 366 421 34,000  Level Chicago Center
09:39PM 42.8803 -84.6142 262° West 367 422 34,000 -634 Level Chicago Center
09:40PM 42.8667 -84.7536 262° West 372 428 32,700 -968 Descending Chicago Center
09:41PM 42.8514 -84.8981 262° West 384 442 32,000 -339 Descending Chicago Center
09:43PM 42.8361 -85.0425 262° West 386 444 32,000  Level Chicago Center
09:44PM 42.8200 -85.1883 261° West 390 449 32,000  Level Chicago Center
09:45PM 42.8047 -85.3325 262° West 387 445 32,000 -97 Level Chicago Center
09:46PM 42.7853 -85.5064 261° West 388 447 31,800 -1,016 Descending Chicago Center
09:47PM 42.7600 -85.6442 256° West 376 433 29,900 -2,081 Descending Chicago Center
09:48PM 42.7344 -85.7867 256° West 381 438 27,500 -2,341 Descending Chicago Center
09:49PM 42.7097 -85.9250 284° West 379 436 25,100 -2,146 Descending Chicago Center
09:50PM 42.6864 -86.0489 256° West 350 403 23,100 -1,839 Descending Chicago Center
09:51PM 42.6658 -86.1664 257° West 324 373 21,300 -1,500 Descending Chicago Center
09:52PM 42.6433 -86.2847 256° West 322 371 20,000 -634 Descending Chicago Center
09:53PM 42.6189 -86.4083 255° West 335 386 20,000  Level Chicago Center
09:54PM 42.5950 -86.5364 256° West 348 400 20,000 -1,065 Level Chicago Center
09:55PM 42.5672 -86.6856 256° West 341 392 17,800 -2,049 Descending Chicago Center
09:56PM 42.5411 -86.8047 253° West 336 387 15,800 -1,902 Descending Chicago Center
09:57PM 42.5086 -86.9208 249° West 333 383 13,900 -1,935 Descending Chicago Center
09:58PM 42.4783 -87.0317 250° West 320 368 11,800 -1,790 Descending Chicago Center
09:59PM 42.4481 -87.1350 248° West 301 346 10,200 -1,171 Descending Chicago Center
10:00PM 42.4225 -87.2311 250° West 274 315 9,400 -1,024 Descending Chicago Center
10:01PM 42.3717 -87.2817 216° Southwest 246 283 8,100 -1,306 Descending Chicago Center
10:02PM 42.2978 -87.3333 207° Southwest 242 278 6,700 -1,171 Descending Chicago Center
10:03PM 42.2386 -87.3600 198° South 226 260 5,700 -829 Descending Chicago Center
10:04PM 42.1728 -87.3653 183° South 238 274 5,000 -774 Descending Chicago Center
10:05PM 42.1064 -87.3747 279° West 240 276 4,100 -488 Descending Chicago Center
10:06PM 42.0414 -87.3836 186° South 237 273 4,000 -49 Descending Chicago Center
10:07PM 42.0014 -87.4436 228° Southwest 248 285 4,000  Level Chicago Center
10:08PM 42.0022 -87.5300 271° West 240 276 4,000 49 Level Chicago Center
10:09PM 42.0000 -87.6333 268° West 225 259 4,100 -246 Climbing Chicago TRACON
10:10PM 42.0000 -87.7167 278° West 221 254 3,500 -600 Descending Chicago TRACON